sensor_id;sensor_type;location;lat;lon;timestamp;temperature;humidity
34873;DHT22;21084;51.098;14.506;2023-01-16T00:01:33;2.60;99.90
34873;DHT22;21084;51.098;14.506;2023-01-16T00:04:01;2.60;99.90
34873;DHT22;21084;51.098;14.506;2023-01-16T00:06:30;2.60;99.90
34873;DHT22;21084;51.098;14.506;2023-01-16T00:08:58;2.70;99.90
34873;DHT22;21084;51.098;14.506;2023-01-16T00:11:27;2.70;99.90
34873;DHT22;21084;51.098;14.506;2023-01-16T00:13:55;2.60;99.90
34873;DHT22;21084;51.098;14.506;2023-01-16T00:16:24;2.50;99.90
34873;DHT22;21084;51.098;14.506;2023-01-16T00:18:55;2.50;99.90
34873;DHT22;21084;51.098;14.506;2023-01-16T00:21:24;2.60;99.90
34873;DHT22;21084;51.098;14.506;2023-01-16T00:23:53;2.60;99.90
34873;DHT22;21084;51.098;14.506;2023-01-16T00:26:22;2.60;99.90
34873;DHT22;21084;51.098;14.506;2023-01-16T00:28:50;2.50;99.90
34873;DHT22;21084;51.098;14.506;2023-01-16T00:31:19;2.50;99.90
34873;DHT22;21084;51.098;14.506;2023-01-16T00:33:50;2.30;99.90
34873;DHT22;21084;51.098;14.506;2023-01-16T00:36:20;2.30;99.90
34873;DHT22;21084;51.098;14.506;2023-01-16T00:38:48;2.20;99.90
34873;DHT22;21084;51.098;14.506;2023-01-16T00:41:17;2.10;99.90
34873;DHT22;21084;51.098;14.506;2023-01-16T00:43:45;2.20;99.90
34873;DHT22;21084;51.098;14.506;2023-01-16T00:46:14;2.20;99.90
34873;DHT22;21084;51.098;14.506;2023-01-16T00:48:42;2.10;99.90
34873;DHT22;21084;51.098;14.506;2023-01-16T00:51:11;2.10;99.90
34873;DHT22;21084;51.098;14.506;2023-01-16T00:53:40;2.20;99.90
34873;DHT22;21084;51.098;14.506;2023-01-16T00:56:09;2.20;99.90
34873;DHT22;21084;51.098;14.506;2023-01-16T00:58:37;2.00;99.90
34873;DHT22;21084;51.098;14.506;2023-01-16T01:01:06;2.00;99.90
34873;DHT22;21084;51.098;14.506;2023-01-16T01:03:34;2.00;99.90
34873;DHT22;21084;51.098;14.506;2023-01-16T01:06:05;2.10;99.90
34873;DHT22;21084;51.098;14.506;2023-01-16T01:08:34;2.20;99.90
34873;DHT22;21084;51.098;14.506;2023-01-16T01:11:11;2.20;99.90
34873;DHT22;21084;51.098;14.506;2023-01-16T01:13:41;2.20;99.90
34873;DHT22;21084;51.098;14.506;2023-01-16T01:16:11;2.20;99.90
34873;DHT22;21084;51.098;14.506;2023-01-16T01:18:40;2.20;99.90
34873;DHT22;21084;51.098;14.506;2023-01-16T01:21:09;2.30;99.90
34873;DHT22;21084;51.098;14.506;2023-01-16T01:23:37;2.40;99.90
34873;DHT22;21084;51.098;14.506;2023-01-16T01:26:09;2.40;99.90
34873;DHT22;21084;51.098;14.506;2023-01-16T01:28:37;2.30;99.90
34873;DHT22;21084;51.098;14.506;2023-01-16T01:31:07;2.30;99.90
34873;DHT22;21084;51.098;14.506;2023-01-16T01:33:36;2.50;99.90
34873;DHT22;21084;51.098;14.506;2023-01-16T01:36:06;2.30;99.90
34873;DHT22;21084;51.098;14.506;2023-01-16T01:38:35;2.40;99.90
34873;DHT22;21084;51.098;14.506;2023-01-16T01:41:04;2.50;99.90
34873;DHT22;21084;51.098;14.506;2023-01-16T01:43:42;2.40;99.90
34873;DHT22;21084;51.098;14.506;2023-01-16T01:46:20;2.40;99.90
34873;DHT22;21084;51.098;14.506;2023-01-16T01:48:51;2.50;99.90
34873;DHT22;21084;51.098;14.506;2023-01-16T01:51:23;2.50;99.90
34873;DHT22;21084;51.098;14.506;2023-01-16T01:53:55;2.50;99.90
34873;DHT22;21084;51.098;14.506;2023-01-16T01:56:28;2.50;99.90
34873;DHT22;21084;51.098;14.506;2023-01-16T01:59:02;2.50;99.90
34873;DHT22;21084;51.098;14.506;2023-01-16T02:01:32;2.50;99.90
34873;DHT22;21084;51.098;14.506;2023-01-16T02:04:03;2.50;99.90
34873;DHT22;21084;51.098;14.506;2023-01-16T02:06:39;2.40;99.90
34873;DHT22;21084;51.098;14.506;2023-01-16T02:09:08;2.40;99.90
34873;DHT22;21084;51.098;14.506;2023-01-16T02:11:41;2.40;99.90
34873;DHT22;21084;51.098;14.506;2023-01-16T02:14:15;2.30;99.90
34873;DHT22;21084;51.098;14.506;2023-01-16T02:16:45;2.20;99.90
34873;DHT22;21084;51.098;14.506;2023-01-16T02:19:45;2.10;99.90
34873;DHT22;21084;51.098;14.506;2023-01-16T02:25:57;2.00;99.90
34873;DHT22;21084;51.098;14.506;2023-01-16T02:31:40;1.90;99.90
34873;DHT22;21084;51.098;14.506;2023-01-16T02:34:29;1.80;99.90
34873;DHT22;21084;51.098;14.506;2023-01-16T02:37:11;1.70;99.90
34873;DHT22;21084;51.098;14.506;2023-01-16T02:39:45;1.60;99.90
34873;DHT22;21084;51.098;14.506;2023-01-16T02:42:26;1.60;99.90
34873;DHT22;21084;51.098;14.506;2023-01-16T02:45:01;1.60;99.90
34873;DHT22;21084;51.098;14.506;2023-01-16T02:47:36;1.50;99.90
34873;DHT22;21084;51.098;14.506;2023-01-16T02:50:13;1.40;99.90
34873;DHT22;21084;51.098;14.506;2023-01-16T02:52:46;1.40;99.90
34873;DHT22;21084;51.098;14.506;2023-01-16T02:55:24;1.30;99.90
34873;DHT22;21084;51.098;14.506;2023-01-16T02:57:58;1.30;99.90
34873;DHT22;21084;51.098;14.506;2023-01-16T03:00:28;1.30;99.90
34873;DHT22;21084;51.098;14.506;2023-01-16T03:02:59;1.30;99.90
34873;DHT22;21084;51.098;14.506;2023-01-16T03:05:31;1.30;99.90
34873;DHT22;21084;51.098;14.506;2023-01-16T03:08:16;1.10;99.90
34873;DHT22;21084;51.098;14.506;2023-01-16T03:11:13;1.00;99.90
34873;DHT22;21084;51.098;14.506;2023-01-16T03:14:10;1.00;99.90
34873;DHT22;21084;51.098;14.506;2023-01-16T03:16:44;1.00;99.90
34873;DHT22;21084;51.098;14.506;2023-01-16T03:19:27;1.00;99.90
34873;DHT22;21084;51.098;14.506;2023-01-16T03:22:08;1.00;99.90
34873;DHT22;21084;51.098;14.506;2023-01-16T03:24:57;1.00;99.90
34873;DHT22;21084;51.098;14.506;2023-01-16T03:27:38;0.90;99.90
34873;DHT22;21084;51.098;14.506;2023-01-16T03:30:09;1.10;99.90
34873;DHT22;21084;51.098;14.506;2023-01-16T03:32:42;1.20;99.90
34873;DHT22;21084;51.098;14.506;2023-01-16T03:35:17;1.30;99.90
34873;DHT22;21084;51.098;14.506;2023-01-16T03:37:49;1.40;99.90
34873;DHT22;21084;51.098;14.506;2023-01-16T03:40:23;1.40;99.90
34873;DHT22;21084;51.098;14.506;2023-01-16T03:42:58;1.40;99.90
34873;DHT22;21084;51.098;14.506;2023-01-16T03:45:32;1.50;99.90
34873;DHT22;21084;51.098;14.506;2023-01-16T03:48:11;1.60;99.90
34873;DHT22;21084;51.098;14.506;2023-01-16T03:50:44;1.70;99.90
34873;DHT22;21084;51.098;14.506;2023-01-16T03:53:16;1.80;99.90
34873;DHT22;21084;51.098;14.506;2023-01-16T03:55:53;1.80;99.90
34873;DHT22;21084;51.098;14.506;2023-01-16T03:58:27;1.80;99.90
34873;DHT22;21084;51.098;14.506;2023-01-16T04:01:00;1.90;99.90
34873;DHT22;21084;51.098;14.506;2023-01-16T04:03:39;1.80;99.90
34873;DHT22;21084;51.098;14.506;2023-01-16T04:06:17;1.90;99.90
34873;DHT22;21084;51.098;14.506;2023-01-16T04:08:47;2.10;99.90
34873;DHT22;21084;51.098;14.506;2023-01-16T04:11:15;2.10;99.90
34873;DHT22;21084;51.098;14.506;2023-01-16T04:13:46;2.10;99.90
34873;DHT22;21084;51.098;14.506;2023-01-16T04:16:17;2.10;99.90
34873;DHT22;21084;51.098;14.506;2023-01-16T04:18:47;2.00;99.90
34873;DHT22;21084;51.098;14.506;2023-01-16T04:21:18;2.10;99.90
34873;DHT22;21084;51.098;14.506;2023-01-16T04:23:46;2.10;99.90
34873;DHT22;21084;51.098;14.506;2023-01-16T04:26:15;2.10;99.90
34873;DHT22;21084;51.098;14.506;2023-01-16T04:28:43;2.10;99.90
34873;DHT22;21084;51.098;14.506;2023-01-16T04:31:12;2.10;99.90
34873;DHT22;21084;51.098;14.506;2023-01-16T04:33:40;2.20;99.90
34873;DHT22;21084;51.098;14.506;2023-01-16T04:36:09;2.10;99.90
34873;DHT22;21084;51.098;14.506;2023-01-16T04:38:38;2.10;99.90
34873;DHT22;21084;51.098;14.506;2023-01-16T04:41:07;2.20;99.90
34873;DHT22;21084;51.098;14.506;2023-01-16T04:43:35;2.10;99.90
34873;DHT22;21084;51.098;14.506;2023-01-16T04:46:04;2.10;99.90
34873;DHT22;21084;51.098;14.506;2023-01-16T04:48:33;2.00;99.90
34873;DHT22;21084;51.098;14.506;2023-01-16T04:51:01;1.80;99.90
34873;DHT22;21084;51.098;14.506;2023-01-16T04:53:29;1.80;99.90
34873;DHT22;21084;51.098;14.506;2023-01-16T04:56:01;1.90;99.90
34873;DHT22;21084;51.098;14.506;2023-01-16T04:58:29;1.90;99.90
34873;DHT22;21084;51.098;14.506;2023-01-16T05:00:58;1.90;99.90
34873;DHT22;21084;51.098;14.506;2023-01-16T05:03:26;1.80;99.90
34873;DHT22;21084;51.098;14.506;2023-01-16T05:05:55;1.80;99.90
34873;DHT22;21084;51.098;14.506;2023-01-16T05:08:23;1.80;99.90
34873;DHT22;21084;51.098;14.506;2023-01-16T05:10:54;1.80;99.90
34873;DHT22;21084;51.098;14.506;2023-01-16T05:13:24;1.80;99.90
34873;DHT22;21084;51.098;14.506;2023-01-16T05:15:53;1.70;99.90
34873;DHT22;21084;51.098;14.506;2023-01-16T05:18:21;1.80;99.90
34873;DHT22;21084;51.098;14.506;2023-01-16T05:20:50;1.80;99.90
34873;DHT22;21084;51.098;14.506;2023-01-16T05:23:18;1.90;99.90
34873;DHT22;21084;51.098;14.506;2023-01-16T05:25:46;1.80;99.90
34873;DHT22;21084;51.098;14.506;2023-01-16T05:28:16;1.70;99.90
34873;DHT22;21084;51.098;14.506;2023-01-16T05:30:47;1.70;99.90
34873;DHT22;21084;51.098;14.506;2023-01-16T05:33:16;1.70;99.90
34873;DHT22;21084;51.098;14.506;2023-01-16T05:35:45;1.80;99.90
34873;DHT22;21084;51.098;14.506;2023-01-16T05:38:14;1.80;99.90
34873;DHT22;21084;51.098;14.506;2023-01-16T05:40:43;1.70;99.90
34873;DHT22;21084;51.098;14.506;2023-01-16T05:43:12;1.70;99.90
34873;DHT22;21084;51.098;14.506;2023-01-16T05:45:41;1.80;99.90
34873;DHT22;21084;51.098;14.506;2023-01-16T05:48:11;1.70;99.90
34873;DHT22;21084;51.098;14.506;2023-01-16T05:50:39;1.60;99.90
34873;DHT22;21084;51.098;14.506;2023-01-16T05:53:07;1.70;99.90
34873;DHT22;21084;51.098;14.506;2023-01-16T05:55:39;1.60;99.90
34873;DHT22;21084;51.098;14.506;2023-01-16T05:58:10;1.50;99.90
34873;DHT22;21084;51.098;14.506;2023-01-16T06:00:40;1.50;99.90
34873;DHT22;21084;51.098;14.506;2023-01-16T06:03:10;1.50;99.90
34873;DHT22;21084;51.098;14.506;2023-01-16T06:05:39;1.50;99.90
34873;DHT22;21084;51.098;14.506;2023-01-16T06:08:08;1.50;99.90
34873;DHT22;21084;51.098;14.506;2023-01-16T06:10:36;1.60;99.90
34873;DHT22;21084;51.098;14.506;2023-01-16T06:13:05;1.50;99.90
34873;DHT22;21084;51.098;14.506;2023-01-16T06:15:33;1.40;99.90
34873;DHT22;21084;51.098;14.506;2023-01-16T06:18:01;1.50;99.90
34873;DHT22;21084;51.098;14.506;2023-01-16T06:20:31;1.40;99.90
34873;DHT22;21084;51.098;14.506;2023-01-16T06:23:00;1.40;99.90
34873;DHT22;21084;51.098;14.506;2023-01-16T06:25:28;1.30;99.90
34873;DHT22;21084;51.098;14.506;2023-01-16T06:27:57;1.40;99.90
34873;DHT22;21084;51.098;14.506;2023-01-16T06:30:25;1.40;99.90
34873;DHT22;21084;51.098;14.506;2023-01-16T06:32:53;1.60;99.90
34873;DHT22;21084;51.098;14.506;2023-01-16T06:35:22;1.50;99.90
34873;DHT22;21084;51.098;14.506;2023-01-16T06:37:52;1.50;99.90
34873;DHT22;21084;51.098;14.506;2023-01-16T06:40:20;1.60;99.90
34873;DHT22;21084;51.098;14.506;2023-01-16T06:42:48;1.60;99.90
34873;DHT22;21084;51.098;14.506;2023-01-16T06:45:17;1.50;99.90
34873;DHT22;21084;51.098;14.506;2023-01-16T06:47:51;1.50;99.90
34873;DHT22;21084;51.098;14.506;2023-01-16T06:50:19;1.60;99.90
34873;DHT22;21084;51.098;14.506;2023-01-16T06:52:48;1.60;99.90
34873;DHT22;21084;51.098;14.506;2023-01-16T06:55:18;1.60;99.90
34873;DHT22;21084;51.098;14.506;2023-01-16T06:57:46;1.60;99.90
34873;DHT22;21084;51.098;14.506;2023-01-16T07:00:16;1.60;99.90
34873;DHT22;21084;51.098;14.506;2023-01-16T07:02:50;1.60;99.90
34873;DHT22;21084;51.098;14.506;2023-01-16T07:05:19;1.60;99.90
34873;DHT22;21084;51.098;14.506;2023-01-16T07:07:47;1.60;99.90
34873;DHT22;21084;51.098;14.506;2023-01-16T07:10:18;1.60;99.90
34873;DHT22;21084;51.098;14.506;2023-01-16T07:12:48;1.80;99.90
34873;DHT22;21084;51.098;14.506;2023-01-16T07:15:16;1.60;99.90
34873;DHT22;21084;51.098;14.506;2023-01-16T07:18:03;1.60;99.90
34873;DHT22;21084;51.098;14.506;2023-01-16T07:20:52;1.50;99.90
34873;DHT22;21084;51.098;14.506;2023-01-16T07:23:40;1.50;99.90
34873;DHT22;21084;51.098;14.506;2023-01-16T07:26:11;1.50;99.90
34873;DHT22;21084;51.098;14.506;2023-01-16T07:28:41;1.50;99.90
34873;DHT22;21084;51.098;14.506;2023-01-16T07:31:09;1.60;99.90
34873;DHT22;21084;51.098;14.506;2023-01-16T07:33:38;1.70;99.90
34873;DHT22;21084;51.098;14.506;2023-01-16T07:36:07;1.70;99.90
34873;DHT22;21084;51.098;14.506;2023-01-16T07:38:35;1.70;99.90
34873;DHT22;21084;51.098;14.506;2023-01-16T07:41:04;1.90;99.90
34873;DHT22;21084;51.098;14.506;2023-01-16T07:43:34;2.00;99.90
34873;DHT22;21084;51.098;14.506;2023-01-16T07:46:03;2.00;99.90
34873;DHT22;21084;51.098;14.506;2023-01-16T07:48:32;1.90;99.90
34873;DHT22;21084;51.098;14.506;2023-01-16T07:51:00;2.20;99.90
34873;DHT22;21084;51.098;14.506;2023-01-16T07:53:29;2.30;99.90
34873;DHT22;21084;51.098;14.506;2023-01-16T07:55:59;2.30;99.90
34873;DHT22;21084;51.098;14.506;2023-01-16T07:58:28;2.40;99.90
34873;DHT22;21084;51.098;14.506;2023-01-16T08:00:59;2.50;99.90
34873;DHT22;21084;51.098;14.506;2023-01-16T08:03:27;2.60;99.90
34873;DHT22;21084;51.098;14.506;2023-01-16T08:05:57;2.70;99.90
34873;DHT22;21084;51.098;14.506;2023-01-16T08:08:25;2.70;99.90
34873;DHT22;21084;51.098;14.506;2023-01-16T08:10:55;2.80;99.90
34873;DHT22;21084;51.098;14.506;2023-01-16T08:13:25;2.80;99.90
34873;DHT22;21084;51.098;14.506;2023-01-16T08:15:53;2.90;99.90
34873;DHT22;21084;51.098;14.506;2023-01-16T08:18:23;2.90;99.90
34873;DHT22;21084;51.098;14.506;2023-01-16T08:20:51;3.00;99.90
34873;DHT22;21084;51.098;14.506;2023-01-16T08:23:20;3.10;99.90
34873;DHT22;21084;51.098;14.506;2023-01-16T08:25:49;3.20;99.90
34873;DHT22;21084;51.098;14.506;2023-01-16T08:28:19;3.20;99.90
34873;DHT22;21084;51.098;14.506;2023-01-16T08:30:47;3.20;99.90
34873;DHT22;21084;51.098;14.506;2023-01-16T08:33:16;3.10;99.90
34873;DHT22;21084;51.098;14.506;2023-01-16T08:35:46;3.10;99.90
34873;DHT22;21084;51.098;14.506;2023-01-16T08:38:14;3.00;99.90
34873;DHT22;21084;51.098;14.506;2023-01-16T08:40:43;2.90;99.90
34873;DHT22;21084;51.098;14.506;2023-01-16T08:43:11;2.90;99.90
34873;DHT22;21084;51.098;14.506;2023-01-16T08:45:57;2.90;99.90
34873;DHT22;21084;51.098;14.506;2023-01-16T08:48:43;2.90;99.90
34873;DHT22;21084;51.098;14.506;2023-01-16T08:51:31;2.90;99.90
34873;DHT22;21084;51.098;14.506;2023-01-16T08:53:59;2.90;99.90
34873;DHT22;21084;51.098;14.506;2023-01-16T08:56:28;3.00;99.90
34873;DHT22;21084;51.098;14.506;2023-01-16T08:58:56;3.10;99.90
34873;DHT22;21084;51.098;14.506;2023-01-16T09:01:25;3.10;99.90
34873;DHT22;21084;51.098;14.506;2023-01-16T09:03:53;3.00;99.90
34873;DHT22;21084;51.098;14.506;2023-01-16T09:06:22;3.10;99.90
34873;DHT22;21084;51.098;14.506;2023-01-16T09:08:52;3.10;99.90
34873;DHT22;21084;51.098;14.506;2023-01-16T09:11:21;3.30;99.90
34873;DHT22;21084;51.098;14.506;2023-01-16T09:14:06;3.40;99.90
34873;DHT22;21084;51.098;14.506;2023-01-16T09:16:52;3.20;99.90
34873;DHT22;21084;51.098;14.506;2023-01-16T09:19:20;3.30;99.90
34873;DHT22;21084;51.098;14.506;2023-01-16T09:21:49;3.40;99.90
34873;DHT22;21084;51.098;14.506;2023-01-16T09:24:19;3.40;99.90
34873;DHT22;21084;51.098;14.506;2023-01-16T09:26:47;3.50;99.90
34873;DHT22;21084;51.098;14.506;2023-01-16T09:29:16;3.50;99.90
34873;DHT22;21084;51.098;14.506;2023-01-16T09:31:44;3.60;99.90
34873;DHT22;21084;51.098;14.506;2023-01-16T09:34:13;3.60;99.90
34873;DHT22;21084;51.098;14.506;2023-01-16T09:36:41;3.60;99.90
34873;DHT22;21084;51.098;14.506;2023-01-16T09:39:10;3.70;99.90
34873;DHT22;21084;51.098;14.506;2023-01-16T09:42:16;3.90;99.90
34873;DHT22;21084;51.098;14.506;2023-01-16T09:45:10;4.00;99.90
34873;DHT22;21084;51.098;14.506;2023-01-16T09:47:41;3.90;99.90
34873;DHT22;21084;51.098;14.506;2023-01-16T09:50:14;4.20;99.90
34873;DHT22;21084;51.098;14.506;2023-01-16T09:52:47;4.20;99.90
34873;DHT22;21084;51.098;14.506;2023-01-16T09:55:38;4.20;99.90
34873;DHT22;21084;51.098;14.506;2023-01-16T09:58:28;4.10;99.90
34873;DHT22;21084;51.098;14.506;2023-01-16T10:01:05;4.20;99.90
34873;DHT22;21084;51.098;14.506;2023-01-16T10:03:34;4.20;99.90
34873;DHT22;21084;51.098;14.506;2023-01-16T10:06:17;4.20;99.90
34873;DHT22;21084;51.098;14.506;2023-01-16T10:08:57;4.20;99.90
34873;DHT22;21084;51.098;14.506;2023-01-16T10:11:35;4.30;99.90
34873;DHT22;21084;51.098;14.506;2023-01-16T10:17:13;4.20;99.90
34873;DHT22;21084;51.098;14.506;2023-01-16T10:19:57;4.30;99.90
34873;DHT22;21084;51.098;14.506;2023-01-16T10:22:39;4.30;99.90
34873;DHT22;21084;51.098;14.506;2023-01-16T10:25:18;4.20;99.90
34873;DHT22;21084;51.098;14.506;2023-01-16T10:27:55;4.30;99.90
34873;DHT22;21084;51.098;14.506;2023-01-16T10:30:31;4.20;99.90
34873;DHT22;21084;51.098;14.506;2023-01-16T10:33:05;4.20;99.90
34873;DHT22;21084;51.098;14.506;2023-01-16T10:35:39;4.20;99.90
34873;DHT22;21084;51.098;14.506;2023-01-16T10:38:20;4.20;99.90
34873;DHT22;21084;51.098;14.506;2023-01-16T10:40:52;4.20;99.90
34873;DHT22;21084;51.098;14.506;2023-01-16T10:43:28;4.30;99.90
34873;DHT22;21084;51.098;14.506;2023-01-16T10:46:21;4.40;99.90
34873;DHT22;21084;51.098;14.506;2023-01-16T10:49:18;4.30;99.90
34873;DHT22;21084;51.098;14.506;2023-01-16T10:52:04;4.30;99.90
34873;DHT22;21084;51.098;14.506;2023-01-16T10:54:33;4.40;99.90
34873;DHT22;21084;51.098;14.506;2023-01-16T10:57:01;4.50;99.90
34873;DHT22;21084;51.098;14.506;2023-01-16T10:59:33;4.60;99.90
34873;DHT22;21084;51.098;14.506;2023-01-16T11:02:16;4.60;99.90
34873;DHT22;21084;51.098;14.506;2023-01-16T11:04:46;4.70;99.90
34873;DHT22;21084;51.098;14.506;2023-01-16T11:07:16;4.70;99.90
34873;DHT22;21084;51.098;14.506;2023-01-16T11:09:45;4.70;99.90
34873;DHT22;21084;51.098;14.506;2023-01-16T11:12:23;4.90;99.90
34873;DHT22;21084;51.098;14.506;2023-01-16T11:15:19;4.90;99.90
34873;DHT22;21084;51.098;14.506;2023-01-16T11:18:21;4.90;99.90
34873;DHT22;21084;51.098;14.506;2023-01-16T11:21:15;5.10;99.90
34873;DHT22;21084;51.098;14.506;2023-01-16T11:23:47;5.10;99.90
34873;DHT22;21084;51.098;14.506;2023-01-16T11:26:16;5.10;99.90
34873;DHT22;21084;51.098;14.506;2023-01-16T11:28:47;5.00;99.90
34873;DHT22;21084;51.098;14.506;2023-01-16T11:31:19;5.10;99.90
34873;DHT22;21084;51.098;14.506;2023-01-16T11:33:52;5.10;99.90
34873;DHT22;21084;51.098;14.506;2023-01-16T11:36:25;5.20;99.90
34873;DHT22;21084;51.098;14.506;2023-01-16T11:38:54;5.20;99.90
34873;DHT22;21084;51.098;14.506;2023-01-16T11:41:26;5.20;99.90
34873;DHT22;21084;51.098;14.506;2023-01-16T11:44:09;5.40;99.90
34873;DHT22;21084;51.098;14.506;2023-01-16T11:47:11;5.40;99.90
34873;DHT22;21084;51.098;14.506;2023-01-16T11:49:45;5.60;99.90
34873;DHT22;21084;51.098;14.506;2023-01-16T11:52:15;5.60;99.90
34873;DHT22;21084;51.098;14.506;2023-01-16T11:54:55;5.90;99.90
34873;DHT22;21084;51.098;14.506;2023-01-16T11:57:33;6.60;99.90
34873;DHT22;21084;51.098;14.506;2023-01-16T12:00:37;7.70;99.90
34873;DHT22;21084;51.098;14.506;2023-01-16T12:03:48;8.70;99.90
34873;DHT22;21084;51.098;14.506;2023-01-16T12:06:37;10.00;99.90
34873;DHT22;21084;51.098;14.506;2023-01-16T12:09:26;10.60;99.90
34873;DHT22;21084;51.098;14.506;2023-01-16T12:12:18;12.00;99.90
34873;DHT22;21084;51.098;14.506;2023-01-16T12:15:07;12.10;99.90
34873;DHT22;21084;51.098;14.506;2023-01-16T12:17:54;12.80;99.90
34873;DHT22;21084;51.098;14.506;2023-01-16T12:20:28;13.50;99.90
34873;DHT22;21084;51.098;14.506;2023-01-16T12:23:23;15.40;99.90
34873;DHT22;21084;51.098;14.506;2023-01-16T12:26:06;15.80;94.80
34873;DHT22;21084;51.098;14.506;2023-01-16T12:28:42;13.90;94.70
34873;DHT22;21084;51.098;14.506;2023-01-16T12:31:30;12.70;96.80
34873;DHT22;21084;51.098;14.506;2023-01-16T12:34:32;14.10;95.20
34873;DHT22;21084;51.098;14.506;2023-01-16T12:37:17;15.40;94.00
34873;DHT22;21084;51.098;14.506;2023-01-16T12:39:56;14.90;91.00
34873;DHT22;21084;51.098;14.506;2023-01-16T12:42:38;13.80;91.90
34873;DHT22;21084;51.098;14.506;2023-01-16T12:45:35;12.20;94.60
34873;DHT22;21084;51.098;14.506;2023-01-16T12:48:21;14.50;95.00
34873;DHT22;21084;51.098;14.506;2023-01-16T12:51:03;15.00;91.20
34873;DHT22;21084;51.098;14.506;2023-01-16T12:56:38;15.90;85.40
34873;DHT22;21084;51.098;14.506;2023-01-16T12:59:15;15.20;87.10
34873;DHT22;21084;51.098;14.506;2023-01-16T13:01:46;15.50;83.80
34873;DHT22;21084;51.098;14.506;2023-01-16T13:04:20;16.30;83.60
34873;DHT22;21084;51.098;14.506;2023-01-16T13:06:53;15.80;83.00
34873;DHT22;21084;51.098;14.506;2023-01-16T13:09:30;15.40;82.90
34873;DHT22;21084;51.098;14.506;2023-01-16T13:12:13;16.00;83.10
34873;DHT22;21084;51.098;14.506;2023-01-16T13:15:06;14.60;84.00
34873;DHT22;21084;51.098;14.506;2023-01-16T13:17:43;15.10;83.00
34873;DHT22;21084;51.098;14.506;2023-01-16T13:20:14;14.40;87.00
34873;DHT22;21084;51.098;14.506;2023-01-16T13:22:47;15.00;85.10
34873;DHT22;21084;51.098;14.506;2023-01-16T13:25:23;14.50;83.80
34873;DHT22;21084;51.098;14.506;2023-01-16T13:27:57;15.00;87.00
34873;DHT22;21084;51.098;14.506;2023-01-16T13:30:27;15.90;83.40
34873;DHT22;21084;51.098;14.506;2023-01-16T13:32:59;15.20;83.40
34873;DHT22;21084;51.098;14.506;2023-01-16T13:35:33;14.30;86.60
34873;DHT22;21084;51.098;14.506;2023-01-16T13:38:20;14.50;83.00
34873;DHT22;21084;51.098;14.506;2023-01-16T13:43:45;13.90;84.10
34873;DHT22;21084;51.098;14.506;2023-01-16T13:46:34;13.20;87.40
34873;DHT22;21084;51.098;14.506;2023-01-16T13:49:04;14.10;86.40
34873;DHT22;21084;51.098;14.506;2023-01-16T13:51:41;13.10;86.40
34873;DHT22;21084;51.098;14.506;2023-01-16T13:54:14;13.50;85.20
34873;DHT22;21084;51.098;14.506;2023-01-16T13:56:56;13.30;85.70
34873;DHT22;21084;51.098;14.506;2023-01-16T13:59:38;12.80;89.60
34873;DHT22;21084;51.098;14.506;2023-01-16T14:02:27;13.10;87.90
34873;DHT22;21084;51.098;14.506;2023-01-16T14:05:22;13.50;87.30
34873;DHT22;21084;51.098;14.506;2023-01-16T14:08:05;12.70;87.10
34873;DHT22;21084;51.098;14.506;2023-01-16T14:11:24;12.40;90.20
34873;DHT22;21084;51.098;14.506;2023-01-16T14:17:28;11.00;92.00
34873;DHT22;21084;51.098;14.506;2023-01-16T14:19:59;11.20;92.50
34873;DHT22;21084;51.098;14.506;2023-01-16T14:22:35;11.50;92.40
34873;DHT22;21084;51.098;14.506;2023-01-16T14:25:22;9.90;94.20
34873;DHT22;21084;51.098;14.506;2023-01-16T14:27:53;9.10;97.20
34873;DHT22;21084;51.098;14.506;2023-01-16T14:30:28;8.40;99.60
34873;DHT22;21084;51.098;14.506;2023-01-16T14:33:02;7.60;99.90
34873;DHT22;21084;51.098;14.506;2023-01-16T14:35:41;7.20;99.90
34873;DHT22;21084;51.098;14.506;2023-01-16T14:38:14;6.90;99.90
34873;DHT22;21084;51.098;14.506;2023-01-16T14:40:48;6.60;99.90
34873;DHT22;21084;51.098;14.506;2023-01-16T14:43:35;6.40;99.90
34873;DHT22;21084;51.098;14.506;2023-01-16T14:46:29;6.20;99.90
34873;DHT22;21084;51.098;14.506;2023-01-16T14:49:44;6.10;99.90
34873;DHT22;21084;51.098;14.506;2023-01-16T14:52:49;6.00;99.90
34873;DHT22;21084;51.098;14.506;2023-01-16T14:55:50;5.80;99.90
34873;DHT22;21084;51.098;14.506;2023-01-16T14:58:30;5.60;99.90
34873;DHT22;21084;51.098;14.506;2023-01-16T15:01:02;5.40;99.90
34873;DHT22;21084;51.098;14.506;2023-01-16T15:04:03;5.20;99.90
34873;DHT22;21084;51.098;14.506;2023-01-16T15:06:38;5.10;99.90
34873;DHT22;21084;51.098;14.506;2023-01-16T15:09:13;5.10;99.90
34873;DHT22;21084;51.098;14.506;2023-01-16T15:11:48;5.00;99.90
34873;DHT22;21084;51.098;14.506;2023-01-16T15:14:20;4.80;99.90
34873;DHT22;21084;51.098;14.506;2023-01-16T15:17:24;4.80;99.90
34873;DHT22;21084;51.098;14.506;2023-01-16T15:20:23;4.50;99.90
34873;DHT22;21084;51.098;14.506;2023-01-16T15:23:21;4.40;99.90
34873;DHT22;21084;51.098;14.506;2023-01-16T15:32:03;4.10;99.90
34873;DHT22;21084;51.098;14.506;2023-01-16T15:34:32;3.90;99.90
34873;DHT22;21084;51.098;14.506;2023-01-16T15:37:00;3.90;99.90
34873;DHT22;21084;51.098;14.506;2023-01-16T15:39:39;3.80;99.90
34873;DHT22;21084;51.098;14.506;2023-01-16T15:42:13;3.80;99.90
34873;DHT22;21084;51.098;14.506;2023-01-16T15:45:00;3.80;99.90
34873;DHT22;21084;51.098;14.506;2023-01-16T15:47:57;3.50;99.90
34873;DHT22;21084;51.098;14.506;2023-01-16T15:50:35;3.30;99.90
34873;DHT22;21084;51.098;14.506;2023-01-16T15:53:06;3.30;99.90
34873;DHT22;21084;51.098;14.506;2023-01-16T15:55:38;3.40;99.90
34873;DHT22;21084;51.098;14.506;2023-01-16T15:58:13;3.30;99.90
34873;DHT22;21084;51.098;14.506;2023-01-16T16:00:42;3.30;99.90
34873;DHT22;21084;51.098;14.506;2023-01-16T16:03:13;3.50;99.90
34873;DHT22;21084;51.098;14.506;2023-01-16T16:05:46;3.50;99.90
34873;DHT22;21084;51.098;14.506;2023-01-16T16:08:17;3.40;99.90
34873;DHT22;21084;51.098;14.506;2023-01-16T16:10:48;3.40;99.90
34873;DHT22;21084;51.098;14.506;2023-01-16T16:13:36;3.60;99.90
34873;DHT22;21084;51.098;14.506;2023-01-16T16:16:15;3.60;99.90
34873;DHT22;21084;51.098;14.506;2023-01-16T16:19:02;3.60;99.90
34873;DHT22;21084;51.098;14.506;2023-01-16T16:21:33;3.60;99.90
34873;DHT22;21084;51.098;14.506;2023-01-16T16:24:05;3.70;99.90
34873;DHT22;21084;51.098;14.506;2023-01-16T16:26:40;3.70;99.90
34873;DHT22;21084;51.098;14.506;2023-01-16T16:29:18;3.80;99.90
34873;DHT22;21084;51.098;14.506;2023-01-16T16:31:47;3.80;99.90
34873;DHT22;21084;51.098;14.506;2023-01-16T16:34:19;3.90;99.90
34873;DHT22;21084;51.098;14.506;2023-01-16T16:36:54;3.90;99.90
34873;DHT22;21084;51.098;14.506;2023-01-16T16:39:42;3.80;99.90
34873;DHT22;21084;51.098;14.506;2023-01-16T16:45:28;3.80;99.90
34873;DHT22;21084;51.098;14.506;2023-01-16T16:48:30;3.70;99.90